createdAt,value
2019-04-29T00:01:30.274Z,20.57
2019-04-29T00:03:56.314Z,22.77
2019-04-29T00:06:22.378Z,22.30
2019-04-29T00:08:48.384Z,21.10
2019-04-29T00:11:14.432Z,21.53
2019-04-29T00:13:40.760Z,23.03
2019-04-29T00:16:08.717Z,22.13
2019-04-29T00:18:39.647Z,21.80
2019-04-29T00:21:05.692Z,21.00
2019-04-29T00:23:31.705Z,21.57
2019-04-29T00:25:57.912Z,20.67
2019-04-29T00:28:23.952Z,24.47
2019-04-29T00:30:49.983Z,23.37
2019-04-29T00:33:16.738Z,23.83
2019-04-29T00:35:43.369Z,24.37
2019-04-29T00:38:29.911Z,24.30
2019-04-29T00:41:14.220Z,25.37
2019-04-29T00:43:42.393Z,23.90
2019-04-29T00:46:08.819Z,24.10
2019-04-29T00:48:34.901Z,24.07
2019-04-29T00:51:01.092Z,25.13
2019-04-29T00:53:27.840Z,24.57
2019-04-29T00:55:54.036Z,24.90
2019-04-29T00:58:20.264Z,24.83
2019-04-29T01:00:46.641Z,24.70
2019-04-29T01:03:13.199Z,23.40
2019-04-29T01:05:39.286Z,26.33
2019-04-29T01:08:05.608Z,23.97
2019-04-29T01:10:31.665Z,25.37
2019-04-29T01:12:57.665Z,23.30
2019-04-29T01:15:23.773Z,23.07
2019-04-29T01:17:49.887Z,22.20
2019-04-29T01:20:15.890Z,22.17
2019-04-29T01:22:42.304Z,23.57
2019-04-29T01:25:08.603Z,22.10
2019-04-29T01:27:39.335Z,21.67
2019-04-29T01:30:06.485Z,23.93
2019-04-29T01:32:32.572Z,22.87
2019-04-29T01:34:58.726Z,23.23
2019-04-29T01:37:32.560Z,24.20
2019-04-29T01:40:15.710Z,22.53
2019-04-29T01:42:43.535Z,22.70
2019-04-29T01:45:09.628Z,24.37
2019-04-29T01:47:35.664Z,25.80
2019-04-29T01:50:03.236Z,23.70
2019-04-29T01:52:29.234Z,26.13
2019-04-29T01:54:55.287Z,23.67
2019-04-29T01:57:21.343Z,23.87
2019-04-29T01:59:47.476Z,23.77
2019-04-29T02:02:13.621Z,23.37
2019-04-29T02:04:39.621Z,24.93
2019-04-29T02:07:05.625Z,22.40
2019-04-29T02:09:33.629Z,23.40
2019-04-29T02:11:59.633Z,22.47
2019-04-29T02:14:25.669Z,21.67
2019-04-29T02:16:51.693Z,22.77
2019-04-29T02:19:17.772Z,23.60
2019-04-29T02:21:45.796Z,21.73
2019-04-29T02:24:18.747Z,23.63
2019-04-29T02:26:44.803Z,23.40
2019-04-29T02:29:10.854Z,25.47
2019-04-29T02:31:36.830Z,23.17
2019-04-29T02:34:03.936Z,23.43
2019-04-29T02:36:30.350Z,25.00
2019-04-29T02:38:58.426Z,26.00
2019-04-29T02:41:29.309Z,26.17
2019-04-29T02:43:57.378Z,27.60
2019-04-29T02:46:23.525Z,30.60
2019-04-29T02:48:49.580Z,29.53
2019-04-29T02:51:17.476Z,30.40
2019-04-29T02:53:43.512Z,33.90
2019-04-29T02:56:09.535Z,36.90
2019-04-29T02:58:43.350Z,38.30
2019-04-29T03:01:27.604Z,37.40
2019-04-29T03:04:13.530Z,39.40
2019-04-29T03:06:39.892Z,42.20
2019-04-29T03:09:06.022Z,39.13
2019-04-29T03:11:32.128Z,40.67
2019-04-29T03:13:58.242Z,42.70
2019-04-29T03:16:24.526Z,42.20
2019-04-29T03:18:52.814Z,41.73
2019-04-29T03:21:20.970Z,44.50
2019-04-29T03:23:46.977Z,40.10
2019-04-29T03:26:13.067Z,37.90
2019-04-29T03:28:41.126Z,41.43
2019-04-29T03:31:10.408Z,43.40
2019-04-29T03:33:38.987Z,42.80
2019-04-29T03:36:05.393Z,41.10
2019-04-29T03:38:31.790Z,41.00
2019-04-29T03:40:58.362Z,40.10
2019-04-29T03:43:24.622Z,38.70
2019-04-29T03:45:50.813Z,41.00
2019-04-29T03:48:16.959Z,40.47
2019-04-29T03:50:43.075Z,40.90
2019-04-29T03:53:09.185Z,39.80
2019-04-29T03:55:39.665Z,42.10
2019-04-29T03:58:03.124Z,40.83
2019-04-29T04:00:29.269Z,42.60
2019-04-29T04:02:57.378Z,39.93
2019-04-29T04:05:25.273Z,40.07
2019-04-29T04:07:53.302Z,41.07
2019-04-29T04:10:19.386Z,39.77
2019-04-29T04:12:45.387Z,42.67
2019-04-29T04:15:11.721Z,41.70
2019-04-29T04:17:56.327Z,39.43
2019-04-29T04:20:22.573Z,37.93
2019-04-29T04:22:48.793Z,38.70
2019-04-29T04:25:15.792Z,37.33
2019-04-29T04:27:41.978Z,36.40
2019-04-29T04:30:08.435Z,33.10
2019-04-29T04:32:34.480Z,34.83
2019-04-29T04:35:00.489Z,31.60
2019-04-29T04:37:26.489Z,28.10
2019-04-29T04:39:52.976Z,25.63
2019-04-29T04:42:18.993Z,27.60
2019-04-29T04:44:47.761Z,28.37
2019-04-29T04:47:14.003Z,27.50
2019-04-29T04:49:39.993Z,28.10
2019-04-29T04:52:06.062Z,29.67
2019-04-29T04:54:32.072Z,30.00
2019-04-29T04:56:58.184Z,30.43
2019-04-29T04:59:24.196Z,27.27
2019-04-29T05:01:50.248Z,26.07
2019-04-29T05:04:16.339Z,26.70
2019-04-29T05:06:42.402Z,27.30
2019-04-29T05:09:08.427Z,24.60
2019-04-29T05:11:34.448Z,23.53
2019-04-29T05:14:00.801Z,23.67
2019-04-29T05:16:27.006Z,21.43
2019-04-29T05:18:53.204Z,20.73
2019-04-29T05:21:19.250Z,20.17
2019-04-29T05:23:45.558Z,22.57
2019-04-29T05:26:11.582Z,19.63
2019-04-29T05:28:37.573Z,21.77
2019-04-29T05:31:03.633Z,19.07
2019-04-29T05:33:29.698Z,17.93
2019-04-29T05:36:12.574Z,16.83
2019-04-29T05:38:40.461Z,15.60
2019-04-29T05:41:06.977Z,14.10
2019-04-29T05:43:34.860Z,14.93
2019-04-29T05:46:12.232Z,13.57
2019-04-29T05:48:38.366Z,13.07
2019-04-29T05:51:06.286Z,12.57
2019-04-29T05:53:40.003Z,12.13
2019-04-29T05:56:06.056Z,12.50
2019-04-29T05:58:32.950Z,12.00
2019-04-29T06:01:01.906Z,12.20
2019-04-29T06:03:28.039Z,10.63
2019-04-29T06:05:54.188Z,11.83
2019-04-29T06:08:20.235Z,11.40
2019-04-29T06:10:46.254Z,11.47
2019-04-29T06:13:12.484Z,11.27
2019-04-29T06:15:38.530Z,11.27
2019-04-29T06:18:04.836Z,8.33
2019-04-29T06:20:31.098Z,10.20
2019-04-29T06:22:57.175Z,9.37
2019-04-29T06:25:23.491Z,8.30
2019-04-29T06:27:49.723Z,7.77
2019-04-29T06:30:16.039Z,7.87
2019-04-29T06:32:42.190Z,8.60
2019-04-29T06:35:10.554Z,6.20
2019-04-29T06:37:36.486Z,7.40
2019-04-29T06:40:04.884Z,7.37
2019-04-29T06:42:33.466Z,7.33
2019-04-29T06:44:58.893Z,7.00
2019-04-29T06:47:24.910Z,7.90
2019-04-29T06:49:51.534Z,6.43
2019-04-29T06:52:17.724Z,6.90
2019-04-29T06:54:43.791Z,6.00
2019-04-29T06:57:10.063Z,7.47
2019-04-29T06:59:36.060Z,6.57
2019-04-29T07:02:02.160Z,6.70
2019-04-29T07:04:30.666Z,6.10
2019-04-29T07:06:57.477Z,6.17
2019-04-29T07:09:26.248Z,5.13
2019-04-29T07:12:01.131Z,4.93
2019-04-29T07:14:22.000Z,5.47
2019-04-29T07:16:48.103Z,5.63
2019-04-29T07:19:14.120Z,6.60
2019-04-29T07:21:41.956Z,7.43
2019-04-29T07:24:08.361Z,5.90
2019-04-29T07:26:34.361Z,5.03
2019-04-29T07:29:00.429Z,5.30
2019-04-29T07:31:28.454Z,5.33
2019-04-29T07:33:57.926Z,5.10
2019-04-29T07:36:22.851Z,5.03
2019-04-29T07:38:51.282Z,4.87
2019-04-29T07:41:19.116Z,6.63
2019-04-29T07:43:45.921Z,7.03
2019-04-29T07:46:22.403Z,5.50
2019-04-29T07:49:00.890Z,10.30
2019-04-29T07:51:16.289Z,10.13
2019-04-29T07:53:45.601Z,8.53
2019-04-29T07:56:10.349Z,16.17
2019-04-29T07:58:36.441Z,9.53
2019-04-29T08:01:02.618Z,14.83
2019-04-29T08:03:28.741Z,27.00
2019-04-29T08:05:56.064Z,41.23
2019-04-29T08:08:22.838Z,13.20
2019-04-29T08:10:55.966Z,28.70
2019-04-29T08:13:17.547Z,20.00
2019-04-29T08:15:43.719Z,19.83
2019-04-29T08:18:11.425Z,6.17
2019-04-29T08:20:39.766Z,8.10
2019-04-29T08:23:05.697Z,15.87
2019-04-29T08:25:31.899Z,17.33
2019-04-29T08:27:57.908Z,10.13
2019-04-29T08:30:23.919Z,6.63
2019-04-29T08:32:50.178Z,6.00
2019-04-29T08:35:16.293Z,6.93
2019-04-29T08:37:42.432Z,4.70
2019-04-29T08:40:16.319Z,5.13
2019-04-29T08:42:41.420Z,5.40
2019-04-29T08:45:11.449Z,4.70
2019-04-29T08:47:39.673Z,4.87
2019-04-29T08:50:05.810Z,4.23
2019-04-29T08:52:31.906Z,5.50
2019-04-29T08:54:57.957Z,4.80
2019-04-29T08:57:23.979Z,4.90
2019-04-29T08:59:50.834Z,4.60
2019-04-29T09:02:16.866Z,4.13
2019-04-29T09:04:53.316Z,4.60
2019-04-29T09:07:12.631Z,4.33
2019-04-29T09:09:39.100Z,5.67
2019-04-29T09:12:05.428Z,4.47
2019-04-29T09:14:31.506Z,4.97
2019-04-29T09:16:57.673Z,4.47
2019-04-29T09:19:23.663Z,4.40
2019-04-29T09:21:54.122Z,4.40
2019-04-29T09:24:20.250Z,5.60
2019-04-29T09:27:00.100Z,6.77
2019-04-29T09:29:32.898Z,4.60
2019-04-29T09:32:00.029Z,5.70
2019-04-29T09:34:26.552Z,5.00
2019-04-29T09:36:52.594Z,4.27
2019-04-29T09:39:21.182Z,4.37
2019-04-29T09:41:48.534Z,5.43
2019-04-29T09:44:28.152Z,5.90
2019-04-29T09:46:54.134Z,4.70
2019-04-29T09:49:20.147Z,5.47
2019-04-29T09:51:46.153Z,4.60
2019-04-29T09:54:14.431Z,4.40
2019-04-29T09:56:40.068Z,5.17
2019-04-29T09:59:23.000Z,4.23
2019-04-29T10:01:56.798Z,4.37
2019-04-29T10:04:55.906Z,5.77
2019-04-29T10:07:12.574Z,4.70
2019-04-29T10:09:39.061Z,3.90
2019-04-29T10:12:05.222Z,3.93
2019-04-29T10:14:31.388Z,4.37
2019-04-29T10:16:59.657Z,4.80
2019-04-29T10:19:30.160Z,4.30
2019-04-29T10:21:56.217Z,4.63
2019-04-29T10:24:22.323Z,4.33
2019-04-29T10:26:48.372Z,4.90
2019-04-29T10:29:20.298Z,4.67
2019-04-29T10:31:46.437Z,5.13
2019-04-29T10:34:12.848Z,4.20
2019-04-29T10:36:38.869Z,4.60
2019-04-29T10:39:22.735Z,5.00
2019-04-29T10:41:49.363Z,5.00
2019-04-29T10:44:31.875Z,4.23
2019-04-29T10:47:23.171Z,3.87
2019-04-29T10:49:53.725Z,3.70
2019-04-29T10:52:19.864Z,4.33
2019-04-29T10:54:45.988Z,5.20
2019-04-29T10:57:14.756Z,4.40
2019-04-29T10:59:45.037Z,3.40
2019-04-29T11:02:32.324Z,4.63
2019-04-29T11:05:17.340Z,4.07
2019-04-29T11:07:45.576Z,4.33
2019-04-29T11:10:25.924Z,6.57
2019-04-29T11:12:52.331Z,6.93
2019-04-29T11:15:20.363Z,4.97
2019-04-29T11:17:46.498Z,6.27
2019-04-29T11:20:15.868Z,7.10
2019-04-29T11:22:45.870Z,4.23
2019-04-29T11:25:28.914Z,5.10
2019-04-29T11:27:56.846Z,4.80
2019-04-29T11:30:24.864Z,4.90
2019-04-29T11:33:10.964Z,5.33
2019-04-29T11:35:38.981Z,5.40
2019-04-29T11:38:05.893Z,5.00
2019-04-29T11:40:42.992Z,4.90
2019-04-29T11:42:59.965Z,5.17
2019-04-29T11:45:26.113Z,4.77
2019-04-29T11:47:52.203Z,5.57
2019-04-29T11:50:32.082Z,4.30
2019-04-29T11:52:58.093Z,4.23
2019-04-29T11:55:24.116Z,3.73
2019-04-29T11:57:55.141Z,4.13
2019-04-29T12:00:23.310Z,3.73
2019-04-29T12:02:51.246Z,3.93
2019-04-29T12:05:22.551Z,3.93
2019-04-29T12:07:48.593Z,4.27
2019-04-29T12:10:15.080Z,4.20
2019-04-29T12:12:43.609Z,3.67
2019-04-29T12:15:16.897Z,4.40
2019-04-29T12:17:48.288Z,4.20
2019-04-29T12:20:18.794Z,3.97
2019-04-29T12:22:48.451Z,4.20
2019-04-29T12:25:13.040Z,3.90
2019-04-29T12:27:39.237Z,4.00
2019-04-29T12:30:08.616Z,4.20
2019-04-29T12:32:36.568Z,3.60
2019-04-29T12:35:05.533Z,3.90
2019-04-29T12:37:39.576Z,5.00
2019-04-29T12:40:21.245Z,3.73
2019-04-29T12:42:58.256Z,4.57
2019-04-29T12:45:28.979Z,3.70
2019-04-29T12:47:55.210Z,5.23
2019-04-29T12:50:22.836Z,5.10
2019-04-29T12:52:49.141Z,5.10
2019-04-29T12:55:20.095Z,4.30
2019-04-29T12:57:45.151Z,4.40
2019-04-29T13:00:13.145Z,4.50
2019-04-29T13:03:00.050Z,4.57
2019-04-29T13:05:29.069Z,5.07
2019-04-29T13:07:57.157Z,3.90
2019-04-29T13:10:31.652Z,4.80
2019-04-29T13:12:58.208Z,4.03
2019-04-29T13:15:29.315Z,3.90
2019-04-29T13:18:03.531Z,3.87
2019-04-29T13:20:25.314Z,4.80
2019-04-29T13:22:51.437Z,4.50
2019-04-29T13:25:19.661Z,3.70
2019-04-29T13:27:45.609Z,5.37
2019-04-29T13:30:16.064Z,3.90
2019-04-29T13:32:40.542Z,4.50
2019-04-29T13:35:10.520Z,3.90
2019-04-29T13:37:37.362Z,4.60
2019-04-29T13:40:07.353Z,3.97
2019-04-29T13:42:33.906Z,3.83
2019-04-29T13:45:09.347Z,4.40
2019-04-29T13:47:50.466Z,4.13
2019-04-29T13:50:31.339Z,4.83
2019-04-29T13:52:45.847Z,4.00
2019-04-29T13:55:17.640Z,5.17
2019-04-29T13:57:40.202Z,4.90
2019-04-29T14:00:11.524Z,4.37
2019-04-29T14:02:39.533Z,4.50
2019-04-29T14:05:08.032Z,4.17
2019-04-29T14:07:34.128Z,4.50
2019-04-29T14:10:00.153Z,4.60
2019-04-29T14:12:47.884Z,5.67
2019-04-29T14:14:58.460Z,5.93
2019-04-29T14:17:26.529Z,5.83
2019-04-29T14:19:50.422Z,5.17
2019-04-29T14:22:22.548Z,4.90
2019-04-29T14:24:46.821Z,6.00
2019-04-29T14:27:24.163Z,5.20
2019-04-29T14:29:40.480Z,6.10
2019-04-29T14:32:06.692Z,5.73
2019-04-29T14:34:40.365Z,5.93
2019-04-29T14:37:25.272Z,6.53
2019-04-29T14:39:37.370Z,5.67
2019-04-29T14:42:07.931Z,6.23
2019-04-29T14:44:38.947Z,6.40
2019-04-29T14:47:09.747Z,7.07
2019-04-29T14:49:49.672Z,7.93
2019-04-29T14:52:15.942Z,7.00
2019-04-29T14:54:43.509Z,6.10
2019-04-29T14:57:09.768Z,6.20
2019-04-29T14:59:36.351Z,7.37
2019-04-29T15:02:17.271Z,6.40
2019-04-29T15:04:43.328Z,6.10
2019-04-29T15:07:09.510Z,8.53
2019-04-29T15:09:46.415Z,6.87
2019-04-29T15:12:09.893Z,6.07
2019-04-29T15:14:40.775Z,6.93
2019-04-29T15:17:25.473Z,8.20
2019-04-29T15:20:02.687Z,8.60
2019-04-29T15:22:30.757Z,7.80
2019-04-29T15:24:56.891Z,8.77
2019-04-29T15:27:23.013Z,7.40
2019-04-29T15:29:49.135Z,7.80
2019-04-29T15:32:17.792Z,7.37
2019-04-29T15:34:43.927Z,7.20
2019-04-29T15:37:11.563Z,8.23
2019-04-29T15:39:40.813Z,8.33
2019-04-29T15:42:06.753Z,7.70
2019-04-29T15:44:34.215Z,8.63
2019-04-29T15:47:00.561Z,8.73
2019-04-29T15:49:26.670Z,9.13
2019-04-29T15:51:52.857Z,7.07
2019-04-29T15:54:18.954Z,7.90
2019-04-29T15:56:45.127Z,8.00
2019-04-29T15:59:11.193Z,7.77
2019-04-29T16:01:41.236Z,8.23
2019-04-29T16:04:09.932Z,7.23
2019-04-29T16:06:43.490Z,8.00
2019-04-29T16:09:30.506Z,8.10
2019-04-29T16:11:56.478Z,7.33
2019-04-29T16:14:23.788Z,7.50
2019-04-29T16:16:49.841Z,7.30
2019-04-29T16:19:16.075Z,8.27
2019-04-29T16:21:42.204Z,7.50
2019-04-29T16:24:25.054Z,8.97
2019-04-29T16:26:36.439Z,7.67
2019-04-29T16:29:12.295Z,8.10
2019-04-29T16:31:30.827Z,6.80
2019-04-29T16:33:56.835Z,7.13
2019-04-29T16:36:22.943Z,7.37
2019-04-29T16:38:51.378Z,7.13
2019-04-29T16:41:34.099Z,7.37
2019-04-29T16:44:00.250Z,6.07
2019-04-29T16:46:37.287Z,7.23
2019-04-29T16:48:58.988Z,6.07
2019-04-29T16:51:25.052Z,6.30
2019-04-29T16:53:51.356Z,5.40
2019-04-29T16:56:17.372Z,5.57
2019-04-29T16:58:43.523Z,5.20
2019-04-29T17:01:09.658Z,5.67
2019-04-29T17:03:35.652Z,4.93
2019-04-29T17:06:02.323Z,5.43
2019-04-29T17:08:41.945Z,5.43
2019-04-29T17:11:21.882Z,4.67
2019-04-29T17:13:47.884Z,4.60
2019-04-29T17:16:15.820Z,4.50
2019-04-29T17:18:41.929Z,4.67
2019-04-29T17:21:08.243Z,3.63
2019-04-29T17:23:34.296Z,4.23
2019-04-29T17:26:00.414Z,3.57
2019-04-29T17:28:30.892Z,3.20
2019-04-29T17:31:14.340Z,3.73
2019-04-29T17:33:49.868Z,4.03
2019-04-29T17:36:13.384Z,4.17
2019-04-29T17:38:39.666Z,5.20
2019-04-29T17:41:05.966Z,4.13
2019-04-29T17:43:48.842Z,3.80
2019-04-29T17:46:22.341Z,3.47
2019-04-29T17:48:53.032Z,3.30
2019-04-29T17:51:19.260Z,4.20
2019-04-29T17:53:47.303Z,5.57
2019-04-29T17:56:27.283Z,4.97
2019-04-29T17:58:58.228Z,4.13
2019-04-29T18:01:43.379Z,3.70
2019-04-29T18:04:16.838Z,4.20
2019-04-29T18:06:43.643Z,4.23
2019-04-29T18:09:28.070Z,5.00
2019-04-29T18:11:57.559Z,4.37
2019-04-29T18:14:22.491Z,4.07
2019-04-29T18:16:48.691Z,3.60
2019-04-29T18:19:25.396Z,3.17
2019-04-29T18:22:09.672Z,3.93
2019-04-29T18:24:40.412Z,3.83
2019-04-29T18:27:08.402Z,3.20
2019-04-29T18:29:41.354Z,3.70
2019-04-29T18:32:06.493Z,4.77
2019-04-29T18:34:33.707Z,3.73
2019-04-29T18:37:00.389Z,4.10
2019-04-29T18:39:31.688Z,3.73
2019-04-29T18:41:58.746Z,3.60
2019-04-29T18:44:25.861Z,2.33
2019-04-29T18:46:53.784Z,3.43
2019-04-29T18:49:19.863Z,3.50
2019-04-29T18:51:45.871Z,3.77
2019-04-29T18:54:12.220Z,3.60
2019-04-29T18:56:38.190Z,3.60
2019-04-29T18:59:04.743Z,3.20
2019-04-29T19:01:31.294Z,3.57
2019-04-29T19:03:59.709Z,4.50
2019-04-29T19:06:26.060Z,4.20
2019-04-29T19:08:56.634Z,4.27
2019-04-29T19:11:29.945Z,4.13
2019-04-29T19:13:51.915Z,4.03
2019-04-29T19:16:21.630Z,4.23
2019-04-29T19:18:45.080Z,3.70
2019-04-29T19:21:12.096Z,3.53
2019-04-29T19:23:38.261Z,3.93
2019-04-29T19:26:04.346Z,3.90
2019-04-29T19:28:32.544Z,4.73
2019-04-29T19:31:03.037Z,4.67
2019-04-29T19:33:26.566Z,4.17
2019-04-29T19:35:52.573Z,4.50
2019-04-29T19:38:18.870Z,3.73
2019-04-29T19:40:45.145Z,3.80
2019-04-29T19:43:17.155Z,4.43
2019-04-29T19:45:39.669Z,4.60
2019-04-29T19:48:05.970Z,4.63
2019-04-29T19:50:33.461Z,4.70
2019-04-29T19:53:00.669Z,4.73
2019-04-29T19:55:28.005Z,4.60
2019-04-29T19:57:56.154Z,5.77
2019-04-29T20:00:28.115Z,4.67
2019-04-29T20:02:51.423Z,4.83
2019-04-29T20:05:23.873Z,4.40
2019-04-29T20:07:51.205Z,4.40
2019-04-29T20:10:18.850Z,4.03
2019-04-29T20:12:52.802Z,4.10
2019-04-29T20:15:16.032Z,5.20
2019-04-29T20:17:47.047Z,4.23
2019-04-29T20:20:47.969Z,4.83
2019-04-29T20:23:24.840Z,5.00
2019-04-29T20:25:52.723Z,4.90
2019-04-29T20:28:21.389Z,4.33
2019-04-29T20:30:50.497Z,5.10
2019-04-29T20:33:16.168Z,4.83
2019-04-29T20:35:45.499Z,4.50
2019-04-29T20:38:10.412Z,5.90
2019-04-29T20:40:42.990Z,5.17
2019-04-29T20:43:05.698Z,5.30
2019-04-29T20:45:32.813Z,5.10
2019-04-29T20:47:59.004Z,6.20
2019-04-29T20:50:25.325Z,6.10
2019-04-29T20:53:01.782Z,6.10
2019-04-29T20:55:24.672Z,5.60
2019-04-29T20:57:52.407Z,6.20
2019-04-29T21:00:20.056Z,5.20
2019-04-29T21:02:48.877Z,5.43
2019-04-29T21:05:23.168Z,5.30
2019-04-29T21:07:44.531Z,5.83
2019-04-29T21:10:11.779Z,5.43
2019-04-29T21:12:48.761Z,5.80
2019-04-29T21:15:28.807Z,5.83
2019-04-29T21:17:57.200Z,5.63
2019-04-29T21:20:26.250Z,7.33
2019-04-29T21:22:52.455Z,6.40
2019-04-29T21:25:19.416Z,6.40
2019-04-29T21:27:48.484Z,17.27
2019-04-29T21:30:15.131Z,13.30
2019-04-29T21:32:41.544Z,9.53
2019-04-29T21:35:18.566Z,6.10
2019-04-29T21:37:48.060Z,5.90
2019-04-29T21:40:18.675Z,6.37
2019-04-29T21:42:47.304Z,6.17
2019-04-29T21:45:17.430Z,6.83
2019-04-29T21:47:45.650Z,7.17
2019-04-29T21:50:12.839Z,6.50
2019-04-29T21:52:38.941Z,6.43
2019-04-29T21:55:05.464Z,7.93
2019-04-29T21:57:31.912Z,6.93
2019-04-29T21:59:58.190Z,7.20
2019-04-29T22:02:26.104Z,7.43
2019-04-29T22:04:52.257Z,7.67
2019-04-29T22:07:18.956Z,7.30
2019-04-29T22:09:50.089Z,6.77
2019-04-29T22:12:14.168Z,7.60
2019-04-29T22:14:45.036Z,6.90
2019-04-29T22:17:09.639Z,5.77
2019-04-29T22:19:35.994Z,6.83
2019-04-29T22:22:02.911Z,6.50
2019-04-29T22:24:29.258Z,6.90
2019-04-29T22:26:56.422Z,6.60
2019-04-29T22:29:23.459Z,6.30
2019-04-29T22:31:49.664Z,7.47
2019-04-29T22:34:19.038Z,6.57
2019-04-29T22:36:45.435Z,9.37
2019-04-29T22:39:11.955Z,7.33
2019-04-29T22:41:42.983Z,6.53
2019-04-29T22:44:17.071Z,7.53
2019-04-29T22:46:40.148Z,7.43
2019-04-29T22:49:07.319Z,7.50
2019-04-29T22:51:35.445Z,8.47
2019-04-29T22:54:01.592Z,7.50
2019-04-29T22:56:27.846Z,7.27
2019-04-29T22:58:55.875Z,7.80
2019-04-29T23:01:22.520Z,7.43
2019-04-29T23:03:48.606Z,7.73
2019-04-29T23:06:15.715Z,8.17
2019-04-29T23:08:42.327Z,7.57
2019-04-29T23:11:08.661Z,7.80
2019-04-29T23:13:35.809Z,8.70
2019-04-29T23:16:03.608Z,7.87
2019-04-29T23:18:40.968Z,7.07
2019-04-29T23:21:16.578Z,7.40
2019-04-29T23:23:47.642Z,7.57
2019-04-29T23:26:14.850Z,7.50
2019-04-29T23:28:42.644Z,7.90
2019-04-29T23:31:09.296Z,7.47
2019-04-29T23:33:36.129Z,7.60
2019-04-29T23:36:03.384Z,8.67
2019-04-29T23:38:29.404Z,7.77
2019-04-29T23:40:56.442Z,7.67
2019-04-29T23:43:25.345Z,7.33
2019-04-29T23:45:51.836Z,7.77
2019-04-29T23:48:19.923Z,7.10
2019-04-29T23:50:49.668Z,7.37
2019-04-29T23:53:14.840Z,8.40
2019-04-29T23:55:41.165Z,7.57
2019-04-29T23:58:26.120Z,7.97
